createdAt,value
2023-02-04T00:00:14.784Z,6.50
2023-02-04T00:03:17.987Z,6.40
2023-02-04T00:06:22.214Z,6.40
2023-02-04T00:09:25.012Z,6.30
2023-02-04T00:12:28.076Z,6.30
2023-02-04T00:15:31.563Z,6.50
2023-02-04T00:18:34.419Z,6.40
2023-02-04T00:21:38.838Z,6.40
2023-02-04T00:24:42.999Z,6.50
2023-02-04T00:27:46.036Z,6.60
2023-02-04T00:30:48.912Z,6.70
2023-02-04T00:33:51.750Z,6.70
2023-02-04T00:36:55.914Z,6.80
2023-02-04T00:39:58.711Z,6.80
2023-02-04T00:43:01.546Z,6.70
2023-02-04T00:46:04.937Z,6.70
2023-02-04T00:49:10.497Z,6.70
2023-02-04T00:52:14.998Z,6.70
2023-02-04T00:55:18.210Z,6.70
2023-02-04T00:58:21.031Z,6.70
2023-02-04T01:01:23.880Z,6.70
2023-02-04T01:04:28.075Z,6.70
2023-02-04T01:07:32.360Z,6.70
2023-02-04T01:10:35.328Z,6.60
2023-02-04T01:13:38.419Z,6.50
2023-02-04T01:16:41.390Z,6.50
2023-02-04T01:19:44.238Z,6.60
2023-02-04T01:22:48.564Z,6.60
2023-02-04T01:25:51.389Z,6.60
2023-02-04T01:28:54.201Z,6.60
2023-02-04T01:31:57.090Z,6.70
2023-02-04T01:34:59.989Z,6.70
2023-02-04T01:38:04.154Z,6.80
2023-02-04T01:41:07.957Z,7.00
2023-02-04T01:44:11.083Z,6.80
2023-02-04T01:47:14.029Z,6.90
2023-02-04T01:50:18.196Z,7.00
2023-02-04T01:53:24.714Z,7.00
2023-02-04T01:56:30.559Z,7.10
2023-02-04T01:59:35.102Z,7.20
2023-02-04T02:02:43.041Z,7.30
2023-02-04T02:05:49.752Z,7.40
2023-02-04T02:08:54.081Z,7.40
2023-02-04T02:11:57.053Z,7.40
2023-02-04T02:15:00.452Z,7.40
2023-02-04T02:18:04.332Z,7.30
2023-02-04T02:21:11.612Z,7.30
2023-02-04T02:24:29.872Z,7.50
2023-02-04T02:27:32.715Z,7.40
2023-02-04T02:30:35.665Z,7.50
2023-02-04T02:33:38.577Z,7.40
2023-02-04T02:36:41.678Z,7.50
2023-02-04T02:39:47.074Z,7.50
2023-02-04T02:42:52.948Z,7.50
2023-02-04T02:45:57.771Z,7.50
2023-02-04T02:49:01.085Z,7.50
2023-02-04T02:52:04.433Z,7.50
2023-02-04T02:55:15.560Z,7.50
2023-02-04T02:58:23.332Z,7.30
2023-02-04T03:01:27.305Z,7.40
2023-02-04T03:04:32.751Z,7.40
2023-02-04T03:07:35.685Z,7.40
2023-02-04T03:10:40.048Z,7.50
2023-02-04T03:13:43.436Z,7.50
2023-02-04T03:16:47.984Z,7.60
2023-02-04T03:19:51.102Z,7.30
2023-02-04T03:22:54.783Z,7.30
2023-02-04T03:25:58.958Z,7.30
2023-02-04T03:29:01.813Z,7.30
2023-02-04T03:32:06.446Z,7.30
2023-02-04T03:35:09.863Z,7.30
2023-02-04T03:38:12.674Z,7.30
2023-02-04T03:41:16.836Z,7.20
2023-02-04T03:44:21.022Z,7.20
2023-02-04T03:47:23.840Z,7.20
2023-02-04T03:50:26.748Z,7.30
2023-02-04T03:53:29.598Z,7.20
2023-02-04T03:56:33.741Z,7.20
2023-02-04T03:59:36.557Z,6.90
2023-02-04T04:02:39.506Z,6.80
2023-02-04T04:05:42.431Z,6.80
2023-02-04T04:08:45.341Z,6.70
2023-02-04T04:11:49.565Z,6.70
2023-02-04T04:14:52.609Z,6.80
2023-02-04T04:17:55.645Z,6.90
2023-02-04T04:20:58.514Z,6.80
2023-02-04T04:24:01.862Z,6.80
2023-02-04T04:27:06.204Z,6.60
2023-02-04T04:30:10.151Z,6.40
2023-02-04T04:33:13.019Z,6.50
2023-02-04T04:36:15.862Z,6.50
2023-02-04T04:39:18.717Z,6.40
2023-02-04T04:42:22.872Z,6.40
2023-02-04T04:45:25.698Z,6.40
2023-02-04T04:48:28.533Z,6.60
2023-02-04T04:51:32.360Z,6.50
2023-02-04T04:54:35.183Z,6.40
2023-02-04T04:57:39.624Z,6.30
2023-02-04T05:00:42.495Z,6.40
2023-02-04T05:03:45.325Z,6.40
2023-02-04T05:06:48.166Z,6.40
2023-02-04T05:09:51.053Z,6.40
2023-02-04T05:12:55.200Z,6.50
2023-02-04T05:15:58.043Z,6.50
2023-02-04T05:19:00.896Z,6.50
2023-02-04T05:22:03.750Z,6.30
2023-02-04T05:25:07.196Z,6.20
2023-02-04T05:28:11.441Z,6.30
2023-02-04T05:31:14.401Z,6.40
2023-02-04T05:34:17.330Z,6.50
2023-02-04T05:37:21.034Z,6.50
2023-02-04T05:40:23.888Z,6.50
2023-02-04T05:43:28.127Z,6.30
2023-02-04T05:46:30.956Z,6.40
2023-02-04T05:49:33.808Z,6.60
2023-02-04T05:52:36.637Z,6.40
2023-02-04T05:55:39.494Z,6.30
2023-02-04T05:58:43.689Z,6.40
2023-02-04T06:01:46.510Z,6.40
2023-02-04T06:04:49.778Z,6.50
2023-02-04T06:07:52.633Z,6.50
2023-02-04T06:10:55.459Z,6.50
2023-02-04T06:13:59.624Z,6.60
2023-02-04T06:17:02.498Z,6.60
2023-02-04T06:20:06.561Z,6.30
2023-02-04T06:23:09.365Z,6.40
2023-02-04T06:26:12.714Z,6.40
2023-02-04T06:29:16.855Z,6.40
2023-02-04T06:32:20.267Z,6.50
2023-02-04T06:35:23.091Z,6.50
2023-02-04T06:38:25.898Z,6.50
2023-02-04T06:41:28.781Z,6.60
2023-02-04T06:44:33.349Z,6.60
2023-02-04T06:47:36.199Z,6.70
2023-02-04T06:50:39.043Z,6.70
2023-02-04T06:53:44.096Z,6.70
2023-02-04T06:56:46.927Z,6.70
2023-02-04T06:59:51.099Z,6.80
2023-02-04T07:02:53.991Z,6.80
2023-02-04T07:05:56.943Z,6.50
2023-02-04T07:08:59.758Z,6.60
2023-02-04T07:12:02.583Z,6.50
2023-02-04T07:15:07.420Z,6.60
2023-02-04T07:18:10.238Z,6.50
2023-02-04T07:21:13.078Z,6.50
2023-02-04T07:24:15.882Z,6.50
2023-02-04T07:27:18.717Z,6.60
2023-02-04T07:30:22.912Z,6.70
2023-02-04T07:33:25.759Z,6.70
2023-02-04T07:36:28.645Z,6.70
2023-02-04T07:39:31.470Z,6.60
2023-02-04T07:42:34.324Z,6.60
2023-02-04T07:45:38.496Z,6.50
2023-02-04T07:48:41.377Z,6.50
2023-02-04T07:51:44.213Z,6.60
2023-02-04T07:54:47.021Z,6.60
2023-02-04T07:57:49.855Z,6.60
2023-02-04T08:00:54.000Z,6.60
2023-02-04T08:03:56.886Z,6.60
2023-02-04T08:06:59.814Z,6.50
2023-02-04T08:10:02.639Z,6.50
2023-02-04T08:13:05.509Z,6.60
2023-02-04T08:16:11.837Z,6.60
2023-02-04T08:19:18.850Z,6.70
2023-02-04T08:22:22.174Z,6.70
2023-02-04T08:25:25.017Z,6.70
2023-02-04T08:28:27.957Z,6.70
2023-02-04T08:31:32.209Z,6.70
2023-02-04T08:34:35.132Z,6.80
2023-02-04T08:37:37.955Z,6.60
2023-02-04T08:40:40.770Z,6.70
2023-02-04T08:43:43.760Z,6.80
2023-02-04T08:46:47.943Z,6.60
2023-02-04T08:49:50.797Z,6.70
2023-02-04T08:52:53.610Z,6.80
2023-02-04T08:55:56.430Z,7.00
2023-02-04T08:58:59.254Z,7.00
2023-02-04T09:02:03.957Z,6.80
2023-02-04T09:05:07.672Z,6.80
2023-02-04T09:08:10.497Z,6.60
2023-02-04T09:11:13.318Z,6.60
2023-02-04T09:14:16.164Z,6.50
2023-02-04T09:17:20.347Z,6.30
2023-02-04T09:20:23.229Z,6.40
2023-02-04T09:23:26.159Z,6.50
2023-02-04T09:26:29.026Z,6.60
2023-02-04T09:29:32.582Z,6.50
2023-02-04T09:32:36.755Z,6.80
2023-02-04T09:35:39.650Z,6.70
2023-02-04T09:38:42.475Z,6.60
2023-02-04T09:41:45.347Z,6.80
2023-02-04T09:44:48.171Z,7.00
2023-02-04T09:47:52.965Z,6.80
2023-02-04T09:51:05.735Z,7.00
2023-02-04T09:54:13.226Z,7.00
2023-02-04T09:57:19.248Z,7.00
2023-02-04T10:00:24.371Z,6.90
2023-02-04T10:03:28.983Z,7.00
2023-02-04T10:06:31.916Z,7.00
2023-02-04T10:09:34.753Z,7.10
2023-02-04T10:12:37.557Z,7.10
2023-02-04T10:15:40.393Z,7.20
2023-02-04T10:18:45.017Z,7.30
2023-02-04T10:21:48.442Z,7.40
2023-02-04T10:24:51.312Z,7.40
2023-02-04T10:27:56.281Z,7.50
2023-02-04T10:30:59.286Z,7.40
2023-02-04T10:34:14.904Z,7.50
2023-02-04T10:37:20.901Z,7.60
2023-02-04T10:40:28.695Z,7.80
2023-02-04T10:43:31.616Z,7.80
2023-02-04T10:46:34.531Z,7.90
2023-02-04T10:49:40.318Z,7.90
2023-02-04T10:52:46.896Z,8.00
2023-02-04T10:55:51.326Z,8.10
2023-02-04T10:58:54.186Z,8.00
2023-02-04T11:01:59.088Z,8.00
2023-02-04T11:05:04.396Z,8.00
2023-02-04T11:08:22.555Z,7.90
2023-02-04T11:11:27.080Z,7.50
2023-02-04T11:14:31.045Z,7.70
2023-02-04T11:17:35.934Z,7.70
2023-02-04T11:20:41.403Z,7.90
2023-02-04T11:23:44.234Z,8.00
2023-02-04T11:26:51.323Z,8.00
2023-02-04T11:30:05.692Z,8.00
2023-02-04T11:33:25.798Z,8.10
2023-02-04T11:36:30.929Z,8.20
2023-02-04T11:39:37.458Z,8.10
2023-02-04T11:42:42.729Z,8.10
2023-02-04T11:45:46.157Z,8.20
2023-02-04T11:48:53.854Z,8.20
2023-02-04T11:52:08.802Z,8.30
2023-02-04T11:55:12.695Z,8.50
2023-02-04T11:58:17.007Z,8.40
2023-02-04T12:01:21.175Z,8.50
2023-02-04T12:04:26.048Z,8.50
2023-02-04T12:07:31.265Z,8.50
2023-02-04T12:10:35.333Z,8.60
2023-02-04T12:13:49.523Z,9.00
2023-02-04T12:16:52.732Z,9.40
2023-02-04T12:19:55.574Z,9.00
2023-02-04T12:22:59.760Z,9.30
2023-02-04T12:26:02.637Z,9.40
2023-02-04T12:29:05.714Z,9.40
2023-02-04T12:32:08.599Z,9.40
2023-02-04T12:35:11.506Z,9.40
2023-02-04T12:38:15.701Z,9.50
2023-02-04T12:41:19.878Z,9.50
2023-02-04T12:44:22.708Z,9.80
2023-02-04T12:47:25.619Z,9.90
2023-02-04T12:50:28.453Z,9.90
2023-02-04T12:53:32.611Z,9.90
2023-02-04T12:56:35.450Z,9.90
2023-02-04T12:59:38.364Z,9.80
2023-02-04T13:02:41.468Z,9.70
2023-02-04T13:05:44.308Z,9.60
2023-02-04T13:08:48.480Z,9.60
2023-02-04T13:11:51.296Z,9.50
2023-02-04T13:14:54.119Z,9.40
2023-02-04T13:17:56.945Z,9.40
2023-02-04T13:20:59.750Z,9.40
2023-02-04T13:24:03.993Z,9.30
2023-02-04T13:27:06.846Z,9.20
2023-02-04T13:30:12.846Z,8.90
2023-02-04T13:33:16.705Z,8.90
2023-02-04T13:36:19.524Z,8.90
2023-02-04T13:39:23.749Z,8.90
2023-02-04T13:42:26.586Z,9.00
2023-02-04T13:45:29.447Z,9.00
2023-02-04T13:48:32.402Z,9.00
2023-02-04T13:51:35.230Z,9.00
2023-02-04T13:54:39.394Z,9.00
2023-02-04T13:57:42.277Z,9.00
2023-02-04T14:00:45.085Z,8.90
2023-02-04T14:03:47.963Z,8.90
2023-02-04T14:06:50.782Z,8.90
2023-02-04T14:09:55.146Z,8.80
2023-02-04T14:12:58.578Z,8.90
2023-02-04T14:16:01.430Z,8.90
2023-02-04T14:19:04.588Z,8.90
2023-02-04T14:22:07.812Z,8.80
2023-02-04T14:25:12.065Z,8.70
2023-02-04T14:28:15.622Z,8.80
2023-02-04T14:31:19.056Z,8.80
2023-02-04T14:34:21.984Z,8.70
2023-02-04T14:37:28.486Z,8.50
2023-02-04T14:40:32.904Z,8.50
2023-02-04T14:43:37.301Z,8.60
2023-02-04T14:46:41.403Z,8.60
2023-02-04T14:49:44.399Z,8.60
2023-02-04T14:52:47.219Z,8.50
2023-02-04T14:55:51.392Z,8.50
2023-02-04T14:58:54.209Z,8.50
2023-02-04T15:01:57.386Z,8.60
2023-02-04T15:05:00.339Z,8.50
2023-02-04T15:08:03.239Z,8.50
2023-02-04T15:11:08.270Z,8.50
2023-02-04T15:14:11.174Z,8.50
2023-02-04T15:17:14.086Z,8.50
2023-02-04T15:20:17.321Z,8.50
2023-02-04T15:23:20.174Z,8.50
2023-02-04T15:26:25.047Z,8.50
2023-02-04T15:29:28.063Z,8.50
2023-02-04T15:32:30.886Z,8.50
2023-02-04T15:35:33.730Z,8.50
2023-02-04T15:38:36.810Z,8.50
2023-02-04T15:41:41.186Z,8.50
2023-02-04T15:44:44.030Z,8.30
2023-02-04T15:47:46.857Z,8.30
2023-02-04T15:50:49.677Z,8.40
2023-02-04T15:53:52.497Z,8.50
2023-02-04T15:56:56.672Z,8.40
2023-02-04T15:59:59.554Z,8.40
2023-02-04T16:03:02.442Z,8.40
2023-02-04T16:06:05.596Z,8.30
2023-02-04T16:09:08.462Z,8.30
2023-02-04T16:12:12.627Z,8.30
2023-02-04T16:15:15.862Z,8.30
2023-02-04T16:18:18.672Z,8.30
2023-02-04T16:21:21.486Z,8.20
2023-02-04T16:24:24.460Z,8.20
2023-02-04T16:27:28.646Z,8.20
2023-02-04T16:30:31.473Z,8.20
2023-02-04T16:33:34.320Z,8.20
2023-02-04T16:36:37.966Z,8.20
2023-02-04T16:39:42.854Z,8.10
2023-02-04T16:42:47.478Z,8.10
2023-02-04T16:45:50.484Z,8.00
2023-02-04T16:48:53.735Z,8.10
2023-02-04T16:51:56.618Z,8.00
2023-02-04T16:55:00.238Z,8.00
2023-02-04T16:58:04.424Z,8.00
2023-02-04T17:01:07.433Z,7.90
2023-02-04T17:04:10.278Z,8.00
2023-02-04T17:07:13.563Z,7.90
2023-02-04T17:10:36.989Z,7.90
2023-02-04T17:13:41.195Z,7.90
2023-02-04T17:16:44.272Z,7.90
2023-02-04T17:19:47.133Z,7.90
2023-02-04T17:22:49.932Z,7.80
2023-02-04T17:25:52.755Z,7.80
2023-02-04T17:28:57.038Z,7.80
2023-02-04T17:31:59.879Z,7.70
2023-02-04T17:35:02.754Z,7.80
2023-02-04T17:38:05.557Z,7.70
2023-02-04T17:41:08.428Z,7.70
2023-02-04T17:44:16.926Z,7.60
2023-02-04T17:47:19.803Z,7.50
2023-02-04T17:50:22.905Z,7.60
2023-02-04T17:53:25.799Z,7.40
2023-02-04T17:56:28.751Z,7.40
2023-02-04T17:59:33.457Z,7.40
2023-02-04T18:02:36.516Z,7.40
2023-02-04T18:05:45.773Z,7.40
2023-02-04T18:08:49.477Z,7.40
2023-02-04T18:11:52.320Z,7.40
2023-02-04T18:14:56.566Z,7.40
2023-02-04T18:18:07.336Z,7.30
2023-02-04T18:21:19.529Z,7.30
2023-02-04T18:24:27.235Z,7.20
2023-02-04T18:27:32.629Z,7.20
2023-02-04T18:30:37.461Z,7.10
2023-02-04T18:33:41.766Z,7.10
2023-02-04T18:36:44.589Z,7.00
2023-02-04T18:39:47.491Z,7.00
2023-02-04T18:42:50.634Z,7.00
2023-02-04T18:45:55.350Z,6.90
2023-02-04T18:49:05.131Z,6.90
2023-02-04T18:52:18.193Z,6.80
2023-02-04T18:55:26.030Z,6.80
2023-02-04T18:58:31.856Z,6.70
2023-02-04T19:01:40.058Z,6.70
2023-02-04T19:04:42.983Z,6.70
2023-02-04T19:07:45.815Z,6.60
2023-02-04T19:10:49.615Z,6.60
2023-02-04T19:13:54.852Z,6.50
2023-02-04T19:17:16.848Z,6.50
2023-02-04T19:20:23.811Z,6.40
2023-02-04T19:23:26.643Z,6.40
2023-02-04T19:26:33.992Z,6.30
2023-02-04T19:29:40.508Z,6.20
2023-02-04T19:32:46.521Z,6.30
2023-02-04T19:35:49.943Z,6.20
2023-02-04T19:38:59.382Z,6.20
2023-02-04T19:42:02.492Z,6.10
2023-02-04T19:45:19.198Z,6.10
2023-02-04T19:48:29.775Z,6.00
2023-02-04T19:51:33.099Z,5.90
2023-02-04T19:54:39.427Z,5.90
2023-02-04T19:57:42.254Z,5.90
2023-02-04T20:00:59.716Z,5.80
2023-02-04T20:04:13.679Z,5.80
2023-02-04T20:07:20.750Z,5.80
2023-02-04T20:10:26.628Z,5.80
2023-02-04T20:13:29.836Z,5.70
2023-02-04T20:16:39.461Z,5.70
2023-02-04T20:19:43.640Z,5.60
2023-02-04T20:22:49.388Z,5.60
2023-02-04T20:25:53.518Z,5.60
2023-02-04T20:28:56.350Z,5.50
2023-02-04T20:31:59.192Z,5.50
2023-02-04T20:35:38.814Z,5.50
2023-02-04T20:38:41.930Z,5.50
2023-02-04T20:41:44.856Z,5.50
2023-02-04T20:44:48.137Z,5.50
2023-02-04T20:47:53.569Z,5.50
2023-02-04T20:51:00.984Z,5.40
2023-02-04T20:54:11.995Z,5.30
2023-02-04T20:57:21.754Z,5.40
2023-02-04T21:00:34.429Z,5.20
2023-02-04T21:03:38.726Z,5.20
2023-02-04T21:06:43.384Z,5.30
2023-02-04T21:09:46.516Z,5.30
2023-02-04T21:12:49.470Z,5.30
2023-02-04T21:15:52.596Z,5.40
2023-02-04T21:18:55.470Z,5.30
2023-02-04T21:21:59.640Z,5.30
2023-02-04T21:25:02.473Z,5.30
2023-02-04T21:28:05.965Z,5.30
2023-02-04T21:31:09.894Z,5.30
2023-02-04T21:34:13.062Z,5.30
2023-02-04T21:37:17.236Z,5.30
2023-02-04T21:40:23.336Z,5.30
2023-02-04T21:43:26.269Z,5.40
2023-02-04T21:46:29.159Z,5.40
2023-02-04T21:49:32.500Z,5.40
2023-02-04T21:52:36.664Z,5.40
2023-02-04T21:55:40.664Z,5.40
2023-02-04T21:58:43.713Z,5.40
2023-02-04T22:01:46.595Z,5.40
2023-02-04T22:04:49.446Z,5.40
2023-02-04T22:07:54.195Z,5.30
2023-02-04T22:10:57.006Z,5.20
2023-02-04T22:13:59.831Z,5.20
2023-02-04T22:17:02.785Z,5.30
2023-02-04T22:20:06.610Z,5.30
2023-02-04T22:23:10.778Z,5.30
2023-02-04T22:26:13.602Z,5.40
2023-02-04T22:29:21.598Z,5.40
2023-02-04T22:32:24.728Z,5.40
2023-02-04T22:35:29.728Z,5.40
2023-02-04T22:38:33.957Z,5.30
2023-02-04T22:41:36.993Z,5.40
2023-02-04T22:44:39.832Z,5.40
2023-02-04T22:47:42.751Z,5.50
2023-02-04T22:50:45.651Z,5.40
2023-02-04T22:53:50.240Z,5.40
2023-02-04T22:56:53.150Z,5.30
2023-02-04T22:59:56.021Z,5.40
2023-02-04T23:02:58.865Z,5.30
2023-02-04T23:06:01.881Z,5.30
2023-02-04T23:09:06.338Z,5.40
2023-02-04T23:12:15.672Z,5.30
2023-02-04T23:15:18.685Z,5.30
2023-02-04T23:18:21.586Z,5.30
2023-02-04T23:21:25.037Z,5.30
2023-02-04T23:24:29.870Z,5.20
2023-02-04T23:27:32.742Z,5.20
2023-02-04T23:30:35.590Z,5.20
2023-02-04T23:33:38.454Z,5.10
2023-02-04T23:36:42.544Z,5.00
2023-02-04T23:39:46.750Z,5.00
2023-02-04T23:42:49.586Z,5.00
2023-02-04T23:45:52.471Z,4.90
2023-02-04T23:48:55.334Z,5.00
2023-02-04T23:51:58.197Z,4.90
2023-02-04T23:55:02.478Z,4.90
2023-02-04T23:58:06.666Z,4.80
